createdAt,value
2019-04-14T00:02:33.998Z,25.40
2019-04-14T00:05:08.601Z,25.10
2019-04-14T00:07:42.681Z,25.20
2019-04-14T00:10:18.138Z,25.10
2019-04-14T00:12:51.436Z,24.80
2019-04-14T00:15:33.077Z,24.40
2019-04-14T00:17:59.046Z,24.30
2019-04-14T00:20:32.143Z,24.10
2019-04-14T00:23:05.095Z,24.30
2019-04-14T00:25:39.062Z,24.70
2019-04-14T00:28:12.360Z,24.90
2019-04-14T00:30:45.276Z,25.30
2019-04-14T00:33:19.849Z,25.20
2019-04-14T00:36:06.564Z,24.80
2019-04-14T00:38:41.257Z,24.40
2019-04-14T00:41:36.198Z,24.00
2019-04-14T00:44:01.288Z,24.20
2019-04-14T00:46:45.638Z,24.60
2019-04-14T00:49:19.934Z,25.00
2019-04-14T00:51:52.954Z,25.30
2019-04-14T00:54:26.111Z,25.30
2019-04-14T00:56:58.867Z,25.20
2019-04-14T00:59:31.764Z,25.20
2019-04-14T01:02:06.078Z,25.10
2019-04-14T01:04:39.085Z,24.90
2019-04-14T01:07:12.975Z,24.70
2019-04-14T01:09:46.361Z,24.40
2019-04-14T01:12:19.522Z,24.30
2019-04-14T01:14:53.786Z,24.20
2019-04-14T01:17:26.797Z,23.90
2019-04-14T01:19:59.762Z,23.40
2019-04-14T01:22:33.562Z,23.00
2019-04-14T01:25:06.837Z,22.80
2019-04-14T01:27:40.656Z,22.80
2019-04-14T01:30:13.872Z,22.90
2019-04-14T01:32:47.856Z,22.70
2019-04-14T01:35:20.968Z,22.30
2019-04-14T01:37:55.083Z,22.10
2019-04-14T01:40:29.168Z,21.80
2019-04-14T01:43:02.366Z,21.50
2019-04-14T01:45:35.927Z,21.30
2019-04-14T01:48:08.995Z,21.20
2019-04-14T01:50:43.110Z,21.20
2019-04-14T01:53:34.378Z,21.30
2019-04-14T01:56:14.445Z,21.10
2019-04-14T01:58:49.116Z,21.10
2019-04-14T02:01:23.846Z,21.10
2019-04-14T02:03:56.924Z,21.10
2019-04-14T02:06:31.248Z,21.20
2019-04-14T02:09:03.914Z,21.20
2019-04-14T02:11:37.696Z,21.30
2019-04-14T02:14:31.953Z,21.30
2019-04-14T02:17:07.394Z,21.40
2019-04-14T02:19:39.561Z,21.70
2019-04-14T02:22:13.705Z,21.70
2019-04-14T02:24:46.535Z,22.00
2019-04-14T02:27:20.927Z,21.90
2019-04-14T02:29:55.923Z,21.90
2019-04-14T02:32:58.432Z,21.90
2019-04-14T02:35:37.190Z,21.80
2019-04-14T02:43:14.322Z,21.30
2019-04-14T02:48:38.358Z,20.70
2019-04-14T02:50:55.886Z,20.60
2019-04-14T02:53:34.377Z,20.50
2019-04-14T02:56:12.003Z,20.60
2019-04-14T02:58:55.229Z,20.70
2019-04-14T03:01:14.673Z,20.90
2019-04-14T03:03:46.835Z,21.00
2019-04-14T03:06:17.857Z,20.90
2019-04-14T03:09:01.076Z,20.90
2019-04-14T03:11:31.386Z,21.00
2019-04-14T03:14:11.760Z,21.30
2019-04-14T03:17:07.378Z,21.40
2019-04-14T03:19:35.562Z,21.30
2019-04-14T03:22:12.334Z,21.40
2019-04-14T03:24:44.445Z,21.30
2019-04-14T03:27:49.840Z,21.10
2019-04-14T03:30:36.534Z,21.00
2019-04-14T03:33:21.133Z,20.80
2019-04-14T03:35:50.955Z,20.70
2019-04-14T03:37:59.250Z,20.60
2019-04-14T03:40:50.595Z,20.60
2019-04-14T03:43:09.969Z,20.50
2019-04-14T03:48:44.874Z,20.40
2019-04-14T03:50:55.457Z,20.30
2019-04-14T03:54:00.290Z,20.20
2019-04-14T03:55:58.811Z,20.10
2019-04-14T03:58:27.045Z,20.00
2019-04-14T04:01:00.345Z,20.00
2019-04-14T04:03:33.239Z,19.90
2019-04-14T04:06:07.454Z,19.90
2019-04-14T04:08:42.019Z,19.90
2019-04-14T04:11:15.254Z,19.90
2019-04-14T04:13:48.384Z,19.90
2019-04-14T04:16:23.110Z,19.90
2019-04-14T04:19:04.086Z,19.90
2019-04-14T04:21:33.537Z,19.80
2019-04-14T04:24:17.065Z,19.80
2019-04-14T04:26:58.199Z,19.80
2019-04-14T04:29:33.037Z,19.70
2019-04-14T04:32:07.833Z,19.70
2019-04-14T04:34:42.344Z,19.60
2019-04-14T04:37:17.214Z,19.60
2019-04-14T04:39:58.168Z,19.60
2019-04-14T04:42:32.918Z,19.60
2019-04-14T04:45:06.101Z,19.50
2019-04-14T04:47:40.430Z,19.50
2019-04-14T04:50:13.144Z,19.40
2019-04-14T04:52:47.496Z,19.40
2019-04-14T04:55:20.605Z,19.30
2019-04-14T04:57:54.529Z,19.30
2019-04-14T05:00:28.764Z,19.20
2019-04-14T05:03:01.878Z,19.10
2019-04-14T05:05:51.746Z,19.10
2019-04-14T05:08:26.193Z,19.00
2019-04-14T05:11:33.747Z,18.90
2019-04-14T05:14:08.981Z,18.90
2019-04-14T05:16:41.867Z,18.80
2019-04-14T05:19:23.741Z,18.70
2019-04-14T05:21:49.517Z,18.70
2019-04-14T05:24:22.967Z,18.60
2019-04-14T05:26:57.024Z,18.60
2019-04-14T05:29:30.100Z,18.50
2019-04-14T05:32:04.405Z,18.50
2019-04-14T05:34:37.344Z,18.40
2019-04-14T05:37:11.679Z,18.40
2019-04-14T05:39:44.742Z,18.30
2019-04-14T05:42:20.191Z,18.30
2019-04-14T05:44:51.664Z,18.20
2019-04-14T05:47:28.245Z,18.10
2019-04-14T05:50:01.212Z,18.10
2019-04-14T05:52:34.256Z,18.00
2019-04-14T05:55:08.681Z,17.90
2019-04-14T05:57:42.008Z,17.90
2019-04-14T06:00:16.757Z,17.80
2019-04-14T06:02:50.633Z,17.70
2019-04-14T06:05:23.636Z,17.70
2019-04-14T06:07:56.826Z,17.60
2019-04-14T06:10:29.911Z,17.60
2019-04-14T06:13:03.111Z,17.50
2019-04-14T06:15:37.321Z,17.50
2019-04-14T06:18:10.328Z,17.40
2019-04-14T06:20:43.304Z,17.40
2019-04-14T06:23:16.361Z,17.30
2019-04-14T06:25:50.618Z,17.30
2019-04-14T06:28:23.802Z,17.20
2019-04-14T06:30:57.933Z,17.20
2019-04-14T06:33:42.001Z,17.10
2019-04-14T06:36:31.991Z,17.00
2019-04-14T06:39:23.053Z,17.00
2019-04-14T06:41:56.078Z,16.90
2019-04-14T06:44:28.958Z,16.80
2019-04-14T06:47:01.970Z,16.80
2019-04-14T06:49:35.262Z,16.70
2019-04-14T06:52:08.449Z,16.70
2019-04-14T06:54:41.225Z,16.70
2019-04-14T06:57:14.054Z,16.60
2019-04-14T06:59:50.834Z,16.60
2019-04-14T07:02:24.026Z,16.60
2019-04-14T07:04:57.018Z,16.60
2019-04-14T07:07:30.165Z,16.50
2019-04-14T07:10:02.963Z,16.50
2019-04-14T07:12:36.021Z,16.50
2019-04-14T07:15:09.951Z,16.50
2019-04-14T07:17:42.880Z,16.50
2019-04-14T07:20:17.392Z,16.50
2019-04-14T07:22:50.234Z,16.40
2019-04-14T07:25:23.171Z,16.40
2019-04-14T07:27:55.968Z,16.40
2019-04-14T07:30:46.487Z,16.30
2019-04-14T07:33:26.879Z,16.30
2019-04-14T07:36:11.185Z,16.20
2019-04-14T07:38:45.139Z,16.20
2019-04-14T07:41:19.778Z,16.10
2019-04-14T07:44:09.513Z,16.10
2019-04-14T07:47:02.459Z,16.00
2019-04-14T07:49:39.895Z,16.00
2019-04-14T07:52:32.644Z,15.90
2019-04-14T07:55:16.335Z,15.90
2019-04-14T07:58:08.741Z,15.90
2019-04-14T08:00:45.850Z,15.80
2019-04-14T08:03:38.059Z,15.70
2019-04-14T08:06:10.986Z,15.70
2019-04-14T08:08:44.005Z,15.70
2019-04-14T08:11:16.919Z,15.70
2019-04-14T08:13:49.869Z,15.70
2019-04-14T08:16:23.160Z,15.60
2019-04-14T08:18:55.930Z,15.60
2019-04-14T08:21:29.116Z,15.60
2019-04-14T08:24:01.747Z,15.50
2019-04-14T08:26:34.697Z,15.50
2019-04-14T08:29:07.791Z,15.50
2019-04-14T08:31:40.957Z,15.40
2019-04-14T08:34:13.956Z,15.40
2019-04-14T08:36:46.979Z,15.40
2019-04-14T08:39:19.968Z,15.40
2019-04-14T08:42:00.312Z,15.30
2019-04-14T08:44:34.809Z,15.30
2019-04-14T08:47:11.888Z,15.30
2019-04-14T08:49:54.850Z,15.30
2019-04-14T08:52:29.529Z,15.20
2019-04-14T08:55:06.977Z,15.20
2019-04-14T08:57:47.280Z,15.20
2019-04-14T09:00:33.374Z,15.20
2019-04-14T09:03:14.352Z,15.20
2019-04-14T09:06:03.980Z,15.10
2019-04-14T09:08:41.572Z,15.10
2019-04-14T09:11:15.629Z,15.10
2019-04-14T09:13:49.393Z,15.10
2019-04-14T09:16:22.499Z,15.10
2019-04-14T09:19:07.126Z,15.10
2019-04-14T09:21:29.939Z,15.00
2019-04-14T09:24:02.875Z,15.00
2019-04-14T09:26:36.265Z,15.00
2019-04-14T09:29:10.449Z,15.00
2019-04-14T09:31:43.682Z,15.00
2019-04-14T09:34:17.058Z,15.00
2019-04-14T09:36:50.035Z,15.00
2019-04-14T09:39:23.309Z,14.90
2019-04-14T09:41:56.059Z,14.90
2019-04-14T09:44:29.206Z,14.90
2019-04-14T09:47:02.406Z,14.80
2019-04-14T09:49:36.064Z,14.80
2019-04-14T09:52:08.991Z,14.80
2019-04-14T09:54:42.345Z,14.80
2019-04-14T09:57:15.163Z,14.80
2019-04-14T09:59:48.637Z,14.80
2019-04-14T10:02:21.413Z,14.80
2019-04-14T10:04:54.669Z,14.80
2019-04-14T10:07:27.642Z,14.80
2019-04-14T10:10:00.936Z,14.80
2019-04-14T10:12:33.726Z,14.80
2019-04-14T10:15:07.126Z,14.70
2019-04-14T10:17:40.079Z,14.70
2019-04-14T10:20:13.260Z,14.60
2019-04-14T10:22:46.250Z,14.60
2019-04-14T10:25:19.511Z,14.60
2019-04-14T10:27:52.286Z,14.50
2019-04-14T10:30:25.499Z,14.50
2019-04-14T10:32:58.422Z,14.40
2019-04-14T10:35:32.829Z,14.40
2019-04-14T10:38:05.812Z,14.40
2019-04-14T10:40:39.545Z,14.30
2019-04-14T10:43:12.359Z,14.30
2019-04-14T10:45:45.346Z,14.30
2019-04-14T10:48:18.746Z,14.30
2019-04-14T10:50:51.643Z,14.30
2019-04-14T10:53:25.134Z,14.30
2019-04-14T10:55:57.936Z,14.20
2019-04-14T10:58:31.150Z,14.20
2019-04-14T11:01:04.084Z,14.20
2019-04-14T11:03:37.275Z,14.20
2019-04-14T11:06:17.018Z,14.20
2019-04-14T11:08:50.211Z,14.10
2019-04-14T11:11:23.277Z,14.10
2019-04-14T11:13:56.781Z,14.10
2019-04-14T11:16:29.785Z,14.00
2019-04-14T11:19:02.995Z,14.00
2019-04-14T11:21:42.392Z,13.90
2019-04-14T11:24:10.183Z,13.90
2019-04-14T11:26:42.853Z,13.90
2019-04-14T11:29:16.101Z,13.90
2019-04-14T11:31:56.528Z,13.80
2019-04-14T11:34:33.803Z,13.80
2019-04-14T11:37:07.685Z,13.80
2019-04-14T11:39:41.206Z,13.70
2019-04-14T11:42:14.533Z,13.70
2019-04-14T11:44:47.947Z,13.70
2019-04-14T11:47:21.408Z,13.70
2019-04-14T11:49:54.594Z,13.70
2019-04-14T11:52:27.838Z,13.60
2019-04-14T11:55:00.985Z,13.60
2019-04-14T11:57:34.226Z,13.60
2019-04-14T12:00:10.067Z,13.60
2019-04-14T12:02:44.437Z,13.60
2019-04-14T12:05:30.635Z,13.60
2019-04-14T12:08:04.909Z,13.70
2019-04-14T12:10:38.019Z,13.60
2019-04-14T12:13:10.977Z,13.60
2019-04-14T12:15:44.323Z,13.60
2019-04-14T12:18:17.543Z,13.50
2019-04-14T12:20:51.068Z,13.50
2019-04-14T12:23:23.946Z,13.50
2019-04-14T12:26:05.303Z,13.50
2019-04-14T12:28:31.775Z,13.40
2019-04-14T12:31:06.403Z,13.40
2019-04-14T12:33:39.464Z,13.40
2019-04-14T12:36:16.103Z,13.40
2019-04-14T12:38:49.043Z,13.40
2019-04-14T12:41:26.632Z,13.40
2019-04-14T12:44:12.973Z,13.40
2019-04-14T12:46:47.353Z,13.30
2019-04-14T12:49:30.413Z,13.30
2019-04-14T12:52:04.638Z,13.30
2019-04-14T12:54:37.645Z,13.20
2019-04-14T12:57:11.263Z,13.20
2019-04-14T12:59:44.350Z,13.20
2019-04-14T13:02:18.910Z,13.20
2019-04-14T13:04:52.033Z,13.10
2019-04-14T13:07:25.296Z,13.10
2019-04-14T13:09:58.220Z,13.10
2019-04-14T13:12:30.978Z,13.10
2019-04-14T13:15:04.088Z,13.10
2019-04-14T13:17:36.996Z,13.10
2019-04-14T13:20:13.220Z,13.10
2019-04-14T13:22:46.403Z,13.00
2019-04-14T13:25:19.677Z,13.00
2019-04-14T13:27:53.030Z,13.00
2019-04-14T13:30:27.630Z,13.00
2019-04-14T13:33:00.665Z,12.90
2019-04-14T13:35:33.856Z,12.90
2019-04-14T13:38:07.003Z,12.90
2019-04-14T13:40:40.246Z,12.90
2019-04-14T13:43:13.335Z,12.90
2019-04-14T13:45:46.665Z,12.90
2019-04-14T13:48:19.593Z,13.00
2019-04-14T13:50:52.962Z,13.00
2019-04-14T13:53:25.798Z,13.00
2019-04-14T13:56:00.363Z,13.00
2019-04-14T13:58:33.278Z,13.00
2019-04-14T14:01:06.542Z,12.90
2019-04-14T14:03:39.544Z,12.90
2019-04-14T14:06:13.806Z,12.80
2019-04-14T14:08:46.880Z,12.80
2019-04-14T14:11:32.339Z,12.80
2019-04-14T14:14:15.380Z,12.70
2019-04-14T14:16:56.051Z,12.60
2019-04-14T14:19:36.203Z,12.60
2019-04-14T14:22:10.645Z,12.60
2019-04-14T14:24:48.270Z,12.60
2019-04-14T14:27:21.251Z,12.60
2019-04-14T14:29:54.343Z,12.60
2019-04-14T14:32:28.610Z,12.60
2019-04-14T14:35:02.590Z,12.60
2019-04-14T14:37:35.480Z,12.60
2019-04-14T14:40:09.722Z,12.60
2019-04-14T14:42:42.776Z,12.60
2019-04-14T14:45:20.658Z,12.60
2019-04-14T14:48:00.553Z,12.60
2019-04-14T14:50:50.951Z,12.60
2019-04-14T14:53:23.989Z,12.60
2019-04-14T14:55:57.549Z,12.60
2019-04-14T14:58:30.602Z,12.60
2019-04-14T15:01:03.807Z,12.60
2019-04-14T15:03:36.695Z,12.60
2019-04-14T15:06:10.836Z,12.60
2019-04-14T15:08:43.798Z,12.60
2019-04-14T15:11:16.858Z,12.60
2019-04-14T15:13:49.952Z,12.60
2019-04-14T15:16:23.260Z,12.60
2019-04-14T15:18:56.261Z,12.60
2019-04-14T15:21:29.397Z,12.60
2019-04-14T15:24:02.677Z,12.60
2019-04-14T15:26:35.853Z,12.60
2019-04-14T15:29:08.528Z,12.50
2019-04-14T15:31:41.968Z,12.50
2019-04-14T15:34:14.946Z,12.50
2019-04-14T15:36:47.986Z,12.40
2019-04-14T15:39:20.916Z,12.40
2019-04-14T15:41:53.909Z,12.40
2019-04-14T15:44:26.645Z,12.40
2019-04-14T15:46:59.788Z,12.40
2019-04-14T15:49:32.876Z,12.40
2019-04-14T15:52:06.171Z,12.50
2019-04-14T15:54:39.297Z,12.40
2019-04-14T15:57:30.314Z,12.40
2019-04-14T16:00:23.372Z,12.40
2019-04-14T16:02:57.342Z,12.40
2019-04-14T16:05:32.368Z,12.40
2019-04-14T16:08:06.398Z,12.40
2019-04-14T16:10:41.150Z,12.40
2019-04-14T16:13:24.666Z,12.40
2019-04-14T16:16:08.103Z,12.40
2019-04-14T16:18:42.586Z,12.40
2019-04-14T16:21:15.972Z,12.40
2019-04-14T16:23:50.701Z,12.30
2019-04-14T16:26:36.852Z,12.30
2019-04-14T16:29:13.997Z,12.20
2019-04-14T16:31:57.792Z,12.20
2019-04-14T16:34:34.850Z,12.20
2019-04-14T16:37:08.082Z,12.20
2019-04-14T16:39:41.154Z,12.20
2019-04-14T16:42:14.285Z,12.20
2019-04-14T16:44:47.279Z,12.20
2019-04-14T16:47:20.622Z,12.20
2019-04-14T16:49:53.553Z,12.20
2019-04-14T16:52:27.982Z,12.10
2019-04-14T16:55:02.241Z,12.10
2019-04-14T16:57:42.590Z,12.10
2019-04-14T17:00:16.811Z,12.00
2019-04-14T17:02:50.262Z,12.00
2019-04-14T17:05:23.867Z,12.00
2019-04-14T17:07:57.099Z,12.00
2019-04-14T17:10:30.328Z,12.00
2019-04-14T17:13:03.311Z,12.00
2019-04-14T17:15:54.184Z,12.00
2019-04-14T17:18:34.544Z,12.00
2019-04-14T17:21:08.729Z,12.00
2019-04-14T17:23:46.208Z,12.00
2019-04-14T17:26:23.603Z,12.00
2019-04-14T17:28:58.172Z,12.00
2019-04-14T17:31:38.890Z,12.00
2019-04-14T17:34:29.005Z,12.00
2019-04-14T17:37:15.075Z,12.00
2019-04-14T17:40:01.311Z,12.00
2019-04-14T17:42:41.824Z,12.00
2019-04-14T17:45:28.131Z,12.00
2019-04-14T17:48:08.789Z,12.00
2019-04-14T17:50:43.364Z,12.00
2019-04-14T17:53:30.195Z,12.00
2019-04-14T17:56:20.719Z,12.00
2019-04-14T17:59:10.080Z,12.00
2019-04-14T18:02:01.251Z,12.00
2019-04-14T18:04:39.009Z,12.00
2019-04-14T18:07:16.449Z,12.00
2019-04-14T18:09:50.656Z,12.00
2019-04-14T18:12:43.773Z,12.00
2019-04-14T18:15:24.134Z,12.00
2019-04-14T18:18:01.660Z,12.00
2019-04-14T18:20:38.925Z,12.00
2019-04-14T18:23:12.066Z,12.00
2019-04-14T18:25:45.534Z,12.00
2019-04-14T18:28:36.690Z,12.00
2019-04-14T18:31:10.874Z,11.90
2019-04-14T18:33:57.582Z,11.90
2019-04-14T18:36:38.148Z,11.90
2019-04-14T18:39:19.734Z,11.90
2019-04-14T18:41:54.151Z,11.90
2019-04-14T18:44:31.635Z,11.80
2019-04-14T18:47:11.161Z,11.80
2019-04-14T18:50:02.604Z,11.80
2019-04-14T18:52:45.632Z,11.80
2019-04-14T18:55:19.884Z,11.80
2019-04-14T18:57:56.287Z,11.80
2019-04-14T19:00:45.892Z,11.80
2019-04-14T19:03:18.867Z,11.90
2019-04-14T19:05:52.388Z,11.90
2019-04-14T19:08:25.068Z,11.90
2019-04-14T19:11:02.468Z,11.90
2019-04-14T19:13:36.759Z,11.90
2019-04-14T19:16:11.192Z,12.00
2019-04-14T19:18:45.193Z,12.00
2019-04-14T19:21:19.298Z,12.10
2019-04-14T19:23:52.400Z,12.10
2019-04-14T19:26:25.373Z,12.20
2019-04-14T19:28:59.381Z,12.30
2019-04-14T19:31:32.412Z,12.50
2019-04-14T19:34:05.830Z,12.80
2019-04-14T19:36:38.910Z,13.10
2019-04-14T19:39:16.758Z,13.40
2019-04-14T19:41:49.831Z,13.70
2019-04-14T19:44:22.671Z,14.00
2019-04-14T19:46:56.071Z,14.40
2019-04-14T19:49:29.171Z,14.70
2019-04-14T19:52:02.162Z,15.10
2019-04-14T19:54:35.131Z,15.40
2019-04-14T19:57:08.954Z,15.70
2019-04-14T19:59:41.905Z,16.00
2019-04-14T20:02:15.089Z,16.20
2019-04-14T20:04:48.221Z,16.60
2019-04-14T20:07:21.348Z,16.80
2019-04-14T20:09:55.035Z,17.20
2019-04-14T20:12:27.957Z,17.50
2019-04-14T20:15:01.038Z,17.80
2019-04-14T20:17:37.996Z,18.10
2019-04-14T20:20:26.040Z,18.50
2019-04-14T20:23:00.181Z,18.80
2019-04-14T20:25:34.736Z,19.10
2019-04-14T20:28:15.366Z,19.40
2019-04-14T20:30:49.525Z,19.70
2019-04-14T20:33:22.999Z,19.80
2019-04-14T20:35:56.008Z,20.00
2019-04-14T20:38:29.176Z,20.20
2019-04-14T20:41:02.157Z,20.30
2019-04-14T20:43:35.458Z,20.30
2019-04-14T20:46:08.396Z,20.50
2019-04-14T20:48:41.663Z,20.20
2019-04-14T20:51:14.525Z,20.20
2019-04-14T20:53:47.584Z,20.00
2019-04-14T20:56:20.719Z,20.60
2019-04-14T20:58:53.910Z,20.90
2019-04-14T21:01:28.230Z,21.20
2019-04-14T21:04:14.782Z,21.70
2019-04-14T21:06:49.048Z,22.10
2019-04-14T21:09:32.784Z,22.50
2019-04-14T21:12:07.009Z,22.80
2019-04-14T21:14:47.612Z,23.20
2019-04-14T21:17:25.308Z,23.50
2019-04-14T21:20:00.087Z,23.90
2019-04-14T21:22:40.212Z,24.20
2019-04-14T21:25:14.478Z,24.50
2019-04-14T21:27:54.684Z,24.60
2019-04-14T21:30:29.088Z,24.80
2019-04-14T21:33:12.294Z,25.00
2019-04-14T21:35:55.539Z,25.20
2019-04-14T21:38:29.909Z,25.40
2019-04-14T21:41:07.046Z,25.60
2019-04-14T21:43:40.258Z,25.90
2019-04-14T21:46:13.222Z,26.10
2019-04-14T21:48:46.450Z,26.30
2019-04-14T21:51:19.415Z,26.40
2019-04-14T21:53:52.709Z,26.60
2019-04-14T21:56:26.757Z,26.70
2019-04-14T21:59:09.598Z,26.90
2019-04-14T22:01:59.866Z,27.00
2019-04-14T22:04:49.822Z,27.20
2019-04-14T22:07:23.917Z,27.30
2019-04-14T22:09:58.386Z,27.40
2019-04-14T22:12:32.318Z,27.60
2019-04-14T22:15:05.560Z,27.30
2019-04-14T22:17:38.308Z,26.90
2019-04-14T22:20:11.349Z,26.60
2019-04-14T22:22:44.844Z,25.90
2019-04-14T22:25:18.898Z,25.20
2019-04-14T22:27:52.118Z,25.10
2019-04-14T22:30:25.797Z,25.10
2019-04-14T22:32:59.119Z,25.20
2019-04-14T22:35:32.003Z,25.80
2019-04-14T22:38:05.166Z,26.30
2019-04-14T22:40:38.094Z,26.80
2019-04-14T22:43:11.152Z,27.00
2019-04-14T22:45:43.969Z,27.40
2019-04-14T22:48:17.234Z,27.70
2019-04-14T22:50:50.014Z,28.00
2019-04-14T22:53:23.103Z,28.30
2019-04-14T22:55:56.118Z,28.50
2019-04-14T22:58:29.255Z,28.60
2019-04-14T23:01:09.166Z,28.60
2019-04-14T23:03:44.612Z,28.70
2019-04-14T23:06:18.884Z,28.90
2019-04-14T23:08:59.493Z,29.00
2019-04-14T23:11:36.533Z,29.00
2019-04-14T23:14:10.935Z,29.10
2019-04-14T23:16:57.706Z,29.20
2019-04-14T23:19:34.185Z,29.40
2019-04-14T23:22:09.771Z,29.40
2019-04-14T23:24:44.245Z,29.50
2019-04-14T23:27:17.418Z,29.50
2019-04-14T23:29:51.517Z,29.50
2019-04-14T23:32:24.583Z,29.40
2019-04-14T23:34:57.386Z,29.30
2019-04-14T23:37:31.078Z,29.10
2019-04-14T23:40:03.982Z,28.70
2019-04-14T23:42:37.294Z,28.30
2019-04-14T23:45:11.135Z,28.00
2019-04-14T23:47:44.093Z,27.80
2019-04-14T23:50:17.333Z,27.40
2019-04-14T23:52:50.014Z,27.10
2019-04-14T23:55:23.024Z,26.90
2019-04-14T23:57:56.867Z,26.70
